Tiempo atmosférico en la estación meteorológica de Fuengirola, Málaga (3 m.)



Fecha
DESCASC
Temp. máxima en grados centígrados (hora)
DESCASC
Temp. mínima en grados centígrados (hora)
DESCASC
Temp. media en grados centígrados
DESCASC
Racha de viento máxima en m/sg (hora)
DESCASC
Velocidad máxima media en intervalos de 10 minutos(hora)
DESCASC
Precipitaciones diarias en mm
DESCASC
Precipitaciones de 00:00 a 06:00 en mm
DESCASC
Precipitaciones de 06:00 a 12:00 en mm
DESCASC
Precipitaciones de 12:00 a 18:00 en mm
DESCASC
Precipitaciones de 18:00 a 24:00 en mm
DESCASC
14-12-2019 -- (--) -- (--) -- 10.28 (03:40) 5.28 (12:10) 0 0 0 0 0
13-12-2019 -- (--) -- (--) -- 13.06 (00:10) 4.44 (01:50) 0 0 0 0 0
12-12-2019 -- (--) -- (--) -- 18.33 (09:40) 6.39 (05:40) 0 0 0 0 0
11-12-2019 -- (--) -- (--) -- 10.56 (18:50) 6.11 (19:00) 0 0 0 0 0
10-12-2019 -- (--) -- (--) -- 5 (06:50) 3.33 (12:00) 0 0 0 0 0
09-12-2019 -- (--) -- (--) -- 12.78 (07:20) 7.5 (07:20) 0 0 0 0 0
08-12-2019 -- (--) -- (--) -- 6.11 (20:30) 3.33 (21:00) 0 0 0 0 0
07-12-2019 -- (--) -- (--) -- 4.44 (13:50) 3.33 (13:20) 0 0 0 0 0
06-12-2019 -- (--) -- (--) -- 4.72 (16:30) 3.06 (16:40) 0 0 0 0 0
05-12-2019 -- (--) -- (--) -- 7.22 (18:10) 4.44 (13:00) 0 0 0 0 0
04-12-2019 -- (--) -- (--) -- 10.28 (15:20) 2.78 (15:50) 0.4 0.4 0 0 0
03-12-2019 -- (--) -- (--) -- 7.78 (00:10) 5 (00:10) 2.6 1.7 0 0.9 0
02-12-2019 -- (--) -- (--) -- 10 (23:10) 7.5 (23:10) 1.4 0 0.4 1 0
01-12-2019 -- (--) -- (--) -- 8.89 (17:20) 3.89 (14:40) 0.2 0 0 0 0.2
30-11-2019 -- (--) -- (--) -- 4.17 (11:20) 2.78 (11:50) 0 0 0 0 0
29-11-2019 -- (--) -- (--) -- 5.83 (04:40) 3.61 (17:00) 0 0 0 0 0
28-11-2019 -- (--) -- (--) -- 6.94 (11:40) 5 (11:00) 0 0 0 0 0
27-11-2019 -- (--) -- (--) -- 8.06 (15:00) 3.33 (15:00) 0 0 0 0 0
26-11-2019 -- (--) -- (--) -- 8.61 (15:20) 2.78 (16:20) 0 0 0 0 0
25-11-2019 -- (--) -- (--) -- 6.94 (01:20) 2.78 (15:50) 0 0 0 0 0
24-11-2019 -- (--) -- (--) -- 6.94 (11:50) 3.06 (13:00) 0 0 0 0 0
23-11-2019 -- (--) -- (--) -- 12.5 (11:50) 5.56 (09:00) 0 0 0 0 0
22-11-2019 -- (--) -- (--) -- 15 (15:50) 4.72 (23:20) 49.2 5.3 23.7 2.1 18.1
21-11-2019 -- (--) -- (--) -- 5.83 (21:30) 1.67 (17:50) 37.5 4.1 18.4 11.6 3.4
20-11-2019 -- (--) -- (--) -- 4.44 (08:30) 2.22 (00:10) 2.4 0 0.4 1.8 0.2
19-11-2019 -- (--) -- (--) -- 8.89 (02:50) 3.89 (02:50) 0 0 0 0 0
18-11-2019 -- (--) -- (--) -- 16.67 (19:30) 6.11 (12:10) 0 0 0 0 0
17-11-2019 -- (--) -- (--) -- 12.78 (14:40) 5.56 (14:40) 0 0 0 0 0
16-11-2019 -- (--) -- (--) -- 9.17 (12:30) 4.72 (12:40) 0 0 0 0 0
15-11-2019 -- (--) -- (--) -- 11.11 (16:00) 4.72 (15:30) 0 0 0 0 0

Gráficas

Temp. máximas Temp. mínimas Temp. medias Precipitaciones Rachas de viento máximas Velocidades máximas media en intervalos de 10 minutos

Datos horarios

Fecha y hora oficial Temperatura (ºC) Velocidad del viento (km/h) Dirección del viento Racha (km/h) Dirección de racha Precipitación (mm) Presión (hPa) Tendencia (hPa) Humedad (%)
2019-12-14 23:00:00 -- 5 Norte 18 Norte 0 1016.8 -0.1 67
2019-12-14 22:00:00 -- 6 Noroeste 24 Este 0 1017.1 0.4 68
2019-12-14 21:00:00 -- 4 Noroeste 11 Sudeste 0 1016.9 0.2 65
2019-12-14 20:00:00 -- 0 Calma 11 Nordeste 0 1016.9 0.3 66
2019-12-14 19:00:00 -- 2 Oeste 26 Norte 0 1016.7 0.2 64
2019-12-14 18:00:00 -- 8 Norte 33 Norte 0 1016.7 0.2 61
2019-12-14 17:00:00 -- 15 Nordeste 33 Nordeste 0 1016.6 -0.3 60
2019-12-14 16:00:00 -- 10 Sur 19 Sudeste 0 1016.5 -1.1 68
2019-12-14 15:00:00 -- 10 Sudeste 20 Sur 0 1016.5 -1.8 68
2019-12-14 14:00:00 -- 13 Sur 23 Sur 0 1016.9 -1.5 66
2019-12-14 13:00:00 -- 3 Oeste 26 Sur 0 1017.6 -0.7 65
2019-12-14 12:00:00 -- 13 Sur 27 Sudeste 0 1018.3 0.7 68
2019-12-14 11:00:00 -- 10 Sur 28 Sudoeste 0 1018.4 1 67
2019-12-14 10:00:00 -- 3 Oeste 30 Sudeste 0 1018.3 0.7 66
2019-12-14 09:00:00 -- 8 Este 26 Este 0 1017.6 -0.3 68
2019-12-14 08:00:00 -- 7 Sur 23 Sudeste 0 1017.4 -1 70
2019-12-14 07:00:00 -- 4 Sur 17 Sur 0 1017.6 -1.3 69
2019-12-14 06:00:00 -- 6 Sudoeste 27 Sudeste 0 1017.9 -1.4 69
2019-12-14 05:00:00 -- 5 Norte 25 Sudoeste 0 1018.4 -1 67
2019-12-14 04:00:00 -- 6 Noroeste 37 Oeste 0 1018.9 -1.3 66
2019-12-14 03:00:00 -- 5 Oeste 26 Norte 0 1019.3 -0.9 66
2019-12-14 02:00:00 -- 3 Oeste 22 Norte 0 1019.4 -0.9 67
2019-12-14 01:00:00 -- 5 Noroeste 19 Noroeste 0 1020.2 0 66
2019-12-14 00:00:00 -- 8 Noroeste 32 Sudoeste 0 1020.2 0.4 64
2019-12-13 23:00:00 -- 4 Oeste 23 Oeste 0 1020.3 0.5 66
2019-12-13 22:00:00 -- 8 Oeste 23 Oeste 0 1020.2 0.7 65
2019-12-13 21:00:00 -- 4 Nordeste 21 Sudeste 0 1019.8 0 63
2019-12-13 20:00:00 -- 2 Este 19 Norte 0 1019.8 0.1 66
2019-12-13 19:00:00 -- 5 Noroeste 21 Noroeste 0 1019.5 -0.3 64
2019-12-13 18:00:00 -- 3 Noroeste 24 Norte 0 1019.8 -0.4 61
2019-12-13 17:00:00 -- 6 Norte 30 Norte 0 1019.7 -0.8 60
2019-12-13 16:00:00 -- 13 Noroeste 24 Noroeste 0 1019.8 -1.6 62
2019-12-13 15:00:00 -- 3 Sudoeste 30 Norte 0 1020.2 -1.6 61
2019-12-13 14:00:00 -- 6 Norte 30 Sur 0 1020.5 -1.2 65
2019-12-13 13:00:00 -- 9 Sudoeste 29 Sur 0 1021.4 0.1 77
2019-12-13 12:00:00 -- 9 Sudoeste 29 Sudoeste 0 1021.8 1 81
2019-12-13 11:00:00 -- 3 Sur 19 Sur 0 1021.7 1.5 89
2019-12-13 10:00:00 -- 3 Sudeste 11 Sur 0 1021.3 1.1 90
2019-12-13 09:00:00 -- 5 Nordeste 12 Noroeste 0 1020.8 1 87
2019-12-13 08:00:00 -- 6 Noroeste 19 Oeste 0 1020.2 0.2 86
2019-12-13 07:00:00 -- 11 Oeste 36 Oeste 0 1020.2 -0.3 86
2019-12-13 06:00:00 -- 9 Oeste 35 Oeste 0 1019.8 -0.7 92
2019-12-13 05:00:00 -- 12 Oeste 39 Oeste 0 1020 -0.4 91
2019-12-13 04:00:00 -- 10 Oeste 38 Oeste 0 1020.5 -0.1 90
2019-12-13 03:00:00 -- 14 Oeste 42 Oeste 0 1020.5 -0.1 85
2019-12-13 02:00:00 -- 14 Oeste 42 Oeste 0 1020.4 -0.7 79
2019-12-13 01:00:00 -- 11 Oeste 47 Oeste 0 1020.6 -0.6 76
2019-12-13 00:00:00 -- 15 Oeste 44 Oeste 0 1020.6 -1 76
2019-12-12 23:00:00 -- 12 Oeste 37 Oeste 0 1021.1 -1 73
2019-12-12 22:00:00 -- 6 Oeste 26 Oeste 0 1021.2 -1.3 72
2019-12-12 21:00:00 -- 8 Oeste 37 Oeste 0 1021.6 -0.5 68
2019-12-12 20:00:00 -- 8 Oeste 24 Oeste 0 1022.1 -0.4 69
2019-12-12 19:00:00 -- 4 Sudoeste 17 Oeste 0 1022.5 0 64
2019-12-12 18:00:00 -- 3 Oeste 23 Noroeste 0 1022.1 -0.6 59
2019-12-12 17:00:00 -- 9 Noroeste 29 Noroeste 0 1022.5 -0.5 55
2019-12-12 16:00:00 -- 12 Norte 43 Este 0 1022.5 -1.4 55
2019-12-12 15:00:00 -- 10 Norte 30 Norte 0 1022.7 -2.2 55
2019-12-12 14:00:00 -- 13 Noroeste 43 Norte 0 1023 -1.2 54
2019-12-12 13:00:00 -- 8 Noroeste 33 Noroeste 0 1023.9 0 54
2019-12-12 12:00:00 -- 7 Noroeste 39 Oeste 0 1024.9 1.9 53
2019-12-12 11:00:00 -- 12 Noroeste 35 Oeste 0 1024.2 1.7 56
2019-12-12 10:00:00 -- 6 Noroeste 66 Norte 0 1023.9 1.3 57
2019-12-12 09:00:00 -- 13 Noroeste 33 Norte 0 1023 0.4 55
2019-12-12 08:00:00 -- 7 Norte 38 Este 0 1022.5 -0.1 55
2019-12-12 07:00:00 -- 0 Calma 28 Norte 0 1022.6 -0.2 55
2019-12-12 06:00:00 -- 5 Norte 54 Norte 0 1022.6 -0.4 53
2019-12-12 05:00:00 -- 10 Norte 37 Norte 0 1022.6 -0.9 53
2019-12-12 04:00:00 -- 12 Norte 40 Nordeste 0 1022.8 -0.9 53
2019-12-12 03:00:00 -- 21 Norte 49 Norte 0 1023 -0.7 56
2019-12-12 02:00:00 -- 7 Norte 21 Noroeste 0 1023.5 -0.3 57
2019-12-12 01:00:00 -- 3 Sudoeste 15 Noroeste 0 1023.7 0.1 57
2019-12-12 00:00:00 -- 4 Noroeste 28 Norte 0 1023.7 -0.1 55
2019-12-11 23:00:00 -- 10 Este 26 Este 0 1023.8 0.2 57
2019-12-11 22:00:00 -- 5 Sudeste 31 Este 0 1023.6 1.1 61
2019-12-11 21:00:00 -- 5 Nordeste 30 Este 0 1023.8 1 62
2019-12-11 20:00:00 -- 3 Sudoeste 37 Norte 0 1023.6 1.8 59
2019-12-11 19:00:00 -- 22 Norte 38 Norte 0 1022.5 0.8 57
2019-12-11 18:00:00 -- 8 Norte 25 Noroeste 0 1022.8 1.4 55
2019-12-11 17:00:00 -- 12 Oeste 28 Oeste 0 1021.8 -0.2 52
2019-12-11 16:00:00 -- 9 Norte 26 Oeste 0 1021.7 -0.8 47
2019-12-11 15:00:00 -- 6 Este 15 Oeste 0 1021.4 -1.5 47
2019-12-11 14:00:00 -- 10 Este 18 Este 0 1022 -1.2 53
2019-12-11 13:00:00 -- 6 Sur 12 Sur 0 1022.5 -0.3 64
2019-12-11 12:00:00 -- 0 Calma 10 Sur 0 1022.9 0.3 62
2019-12-11 11:00:00 -- 0 Calma 12 Oeste 0 1023.2 0.8 52
2019-12-11 10:00:00 -- 5 Sur 17 Oeste 0 1022.8 0.8 57
2019-12-11 09:00:00 -- 5 Oeste 13 Sur 0 1022.6 1.1 56
2019-12-11 08:00:00 -- 3 Sudoeste 15 Oeste 0 1022.4 0.7 54
2019-12-11 07:00:00 -- 6 Oeste 19 Oeste 0 1022 0.4 49
2019-12-11 06:00:00 -- 4 Noroeste 14 Oeste 0 1021.5 -0.6 47
2019-12-11 05:00:00 -- 7 Noroeste 21 Oeste 0 1021.7 -0.7 47
2019-12-11 04:00:00 -- 7 Oeste 23 Noroeste 0 1021.6 -1.2 47
2019-12-11 03:00:00 -- 6 Noroeste 22 Oeste 0 1022.1 -1.1 46
2019-12-11 02:00:00 -- 2 Noroeste 12 Oeste 0 1022.4 -0.7 78
2019-12-11 01:00:00 -- 0 Calma 6 Noroeste 0 1022.8 -0.5 83
2019-12-11 00:00:00 -- 2 Noroeste 5 Nordeste 0 1023.2 -0.2 84
2019-12-10 23:00:00 -- 0 Calma 8 Oeste 0 1023.1 -0.4 87
2019-12-10 22:00:00 -- 4 Oeste 16 Oeste 0 1023.3 0.1 85
2019-12-10 21:00:00 -- 4 Norte 10 Norte 0 1023.4 0.2 86
2019-12-10 20:00:00 -- 4 Norte 11 Norte 0 1023.5 0.2 79
2019-12-10 19:00:00 -- 0 Calma 13 Sudoeste 0 1023.2 -0.3 79
2019-12-10 18:00:00 -- 0 Calma 12 Sudoeste 0 1023.2 -0.5 72
2019-12-10 17:00:00 -- 4 Oeste 10 Sudoeste 0 1023.3 -1 66
2019-12-10 16:00:00 -- 6 Sudoeste 11 Sudoeste 0 1023.5 -2 83
2019-12-10 15:00:00 -- 6 Sudoeste 11 Sudoeste 0 1023.7 -2.8 82
2019-12-10 14:00:00 -- 6 Sur 8 Sur 0 1024.3 -2.2 88
2019-12-10 13:00:00 -- 4 Este 13 Sudeste 0 1025.5 -0.3 90
2019-12-10 12:00:00 -- 12 Sudeste 15 Sudeste 0 1026.5 1.1 91
2019-12-10 11:00:00 -- 8 Este 13 Este 0 1026.5 1.1 88
2019-12-10 10:00:00 -- 3 Norte 9 Noroeste 0 1025.8 1 79
2019-12-10 09:00:00 -- 6 Noroeste 9 Noroeste 0 1025.4 0.5 76
2019-12-10 08:00:00 -- 0 Calma 14 Oeste 0 1025.4 0.3 75
2019-12-10 07:00:00 -- 8 Noroeste 18 Noroeste 0 1024.8 -0.4 76
2019-12-10 06:00:00 -- 6 Noroeste 11 Noroeste 0 1024.9 -0.4 79
2019-12-10 05:00:00 -- 0 Calma 10 Oeste 0 1025.1 -0.2 76
2019-12-10 04:00:00 -- 3 Noroeste 7 Noroeste 0 1025.2 -0.6 75
2019-12-10 03:00:00 -- 3 Noroeste 6 Norte 0 1025.3 -0.6 73
2019-12-10 02:00:00 -- 5 Noroeste 12 Noroeste 0 1025.3 -0.4 70
2019-12-10 01:00:00 -- 6 Noroeste 13 Noroeste 0 1025.8 0 70
2019-12-10 00:00:00 -- 5 Noroeste 10 Oeste 0 1025.9 0.3 71
2019-12-09 23:00:00 -- 8 Oeste 15 Oeste 0 1025.7 0.2 70
2019-12-09 22:00:00 -- 5 Noroeste 14 Oeste 0 1025.8 0.6 74
2019-12-09 21:00:00 -- 5 Noroeste 10 Noroeste 0 1025.6 0.8 77
2019-12-09 20:00:00 -- 3 Noroeste 10 Oeste 0 1025.5 0.9 74
2019-12-09 19:00:00 -- 0 Calma 8 Este 0 1025.2 0.5 74
2019-12-09 18:00:00 -- 3 Norte 7 Norte 0 1024.8 -0.2 77
2019-12-09 17:00:00 -- 6 Sudeste 11 Sudeste 0 1024.6 -0.6 76
2019-12-09 16:00:00 -- 6 Sur 16 Sudeste 0 1024.7 -1 75
2019-12-09 15:00:00 -- 5 Nordeste 10 Sur 0 1025 -1.2 79
2019-12-09 14:00:00 -- 11 Sudeste 18 Sudeste 0 1025.2 -1.3 77
2019-12-09 13:00:00 -- 10 Nordeste 17 Nordeste 0 1025.7 -0.1 69
2019-12-09 12:00:00 -- 7 Norte 23 Norte 0 1026.2 1.4 68
2019-12-09 11:00:00 -- 10 Norte 39 Norte 0 1026.5 2 71
2019-12-09 10:00:00 -- 19 Norte 45 Norte 0 1025.8 1.9 72
2019-12-09 09:00:00 -- 14 Nordeste 45 Noroeste 0 1024.8 0.5 74
2019-12-09 08:00:00 -- 9 Norte 46 Norte 0 1024.5 0.7 73
2019-12-09 07:00:00 -- 24 Nordeste 44 Norte 0 1023.9 -0.1 79
2019-12-09 06:00:00 -- 4 Oeste 20 Noroeste 0 1024.3 0.3 80
2019-12-09 05:00:00 -- 15 Nordeste 41 Nordeste 0 1023.8 -0.4 79
2019-12-09 04:00:00 -- 4 Sudoeste 22 Nordeste 0 1024 -0.6 68
2019-12-09 03:00:00 -- 3 Sur 33 Norte 0 1024 -0.8 71
2019-12-09 02:00:00 -- 6 Norte 36 Nordeste 0 1024.2 -0.3 69
2019-12-09 01:00:00 -- 0 Calma 21 Sudoeste 0 1024.6 -0.1 61
2019-12-09 00:00:00 -- 8 Oeste 19 Oeste 0 1024.8 0.3 60
2019-12-08 23:00:00 -- 2 Noroeste 18 Oeste 0 1024.5 0.1 60
2019-12-08 22:00:00 -- 7 Oeste 18 Norte 0 1024.7 0.8 58
2019-12-08 21:00:00 -- 12 Norte 22 Norte 0 1024.5 1.1 54
2019-12-08 20:00:00 -- 4 Norte 18 Norte 0 1024.4 1.3 71
2019-12-08 19:00:00 -- 2 Sudoeste 13 Sudoeste 0 1023.9 0.8 82
2019-12-08 18:00:00 -- 3 Sudoeste 8 Sudoeste 0 1023.4 0.3 74
2019-12-08 17:00:00 -- 2 Oeste 16 Sur 0 1023.1 -0.4 69
2019-12-08 16:00:00 -- 6 Sudoeste 16 Oeste 0 1023.1 -1.4 69
2019-12-08 15:00:00 -- 4 Oeste 16 Oeste 0 1023.1 -2.2 69
2019-12-08 14:00:00 -- 10 Sudoeste 19 Sur 0 1023.5 -2 79
2019-12-08 13:00:00 -- 3 Sudoeste 16 Sur 0 1024.5 -0.5 82
2019-12-08 12:00:00 -- 4 Sudoeste 14 Sudoeste 0 1025.3 0.7 85
2019-12-08 11:00:00 -- 4 Sudeste 9 Sudeste 0 1025.5 1.2 90
2019-12-08 10:00:00 -- 5 Nordeste 8 Nordeste 0 1025 1 90
2019-12-08 09:00:00 -- 6 Noroeste 10 Oeste 0 1024.6 1.1 90
2019-12-08 08:00:00 -- 0 Calma 10 Oeste 0 1024.3 0.6 93
2019-12-08 07:00:00 -- 2 Noroeste 10 Oeste 0 1024 -0.1 94
2019-12-08 06:00:00 -- 5 Oeste 14 Noroeste 0 1023.5 -0.9 94
2019-12-08 05:00:00 -- 8 Noroeste 15 Oeste 0 1023.7 -0.7 94
2019-12-08 04:00:00 -- 5 Noroeste 11 Oeste 0 1024.1 -0.5 93
2019-12-08 03:00:00 -- 5 Noroeste 10 Oeste 0 1024.4 -0.4 92
2019-12-08 02:00:00 -- 3 Noroeste 9 Noroeste 0 1024.4 -0.2 91
2019-12-08 01:00:00 -- 6 Noroeste 12 Noroeste 0 1024.6 0.4 90
2019-12-08 00:00:00 -- 4 Noroeste 10 Oeste 0 1024.8 1.1 90
2019-12-07 23:00:00 -- 6 Noroeste 10 Noroeste 0 1024.6 1.4 90
2019-12-07 22:00:00 -- 5 Oeste 9 Oeste 0 1024.2 1.4 88
2019-12-07 21:00:00 -- 3 Oeste 8 Oeste 0 1023.7 1.4 88
2019-12-07 20:00:00 -- 3 Oeste 11 Oeste 0 1023.2 1.4 88
2019-12-07 19:00:00 -- 2 Oeste 9 Oeste 0 1022.8 1.4 86
2019-12-07 18:00:00 -- 2 Oeste 10 Sudoeste 0 1022.3 1 84
2019-12-07 17:00:00 -- 5 Sudoeste 12 Sudoeste 0 1021.8 0 84
2019-12-07 16:00:00 -- 5 Sudoeste 12 Sudoeste 0 1021.4 -0.9 86
2019-12-07 15:00:00 -- 2 Sudoeste 14 Sudoeste 0 1021.3 -1.3 89
2019-12-07 14:00:00 -- 5 Sudoeste 16 Sur 0 1021.8 -0.6 89
2019-12-07 13:00:00 -- 8 Sudoeste 13 Sur 0 1022.3 0.4 88
2019-12-07 12:00:00 -- 5 Sudoeste 8 Sudoeste 0 1022.6 1.4 85
2019-12-07 11:00:00 -- 0 Calma 7 Sur 0 1022.4 1.7 82
2019-12-07 10:00:00 -- 0 Calma 13 Oeste 0 1021.9 1.7 82
2019-12-07 09:00:00 -- 5 Oeste 12 Oeste 0 1021.2 1.4 85
2019-12-07 08:00:00 -- 4 Oeste 11 Oeste 0 1020.7 0.8 86
2019-12-07 07:00:00 -- 5 Oeste 12 Oeste 0 1020.2 0.1 87
2019-12-07 06:00:00 -- 5 Oeste 12 Oeste 0 1019.8 -0.4 89
2019-12-07 05:00:00 -- 6 Oeste 12 Oeste 0 1019.9 -0.3 91
2019-12-07 04:00:00 -- 5 Oeste 9 Oeste 0 1020.1 -0.4 92
2019-12-07 03:00:00 -- 4 Noroeste 10 Oeste 0 1020.2 -0.5 92
2019-12-07 02:00:00 -- 3 Oeste 7 Noroeste 0 1020.2 0 91
2019-12-07 01:00:00 -- 5 Noroeste 8 Noroeste 0 1020.5 0.5 90
2019-12-07 00:00:00 -- 0 Calma 6 Noroeste 0 1020.7 0.8 90
2019-12-06 23:00:00 -- 2 Oeste 9 Nordeste 0 1020.2 0.7 90
2019-12-06 22:00:00 -- 4 Nordeste 15 Este 0 1020 1.2 90
2019-12-06 21:00:00 -- 6 Nordeste 16 Nordeste 0 1019.9 1.6 88
2019-12-06 20:00:00 -- 10 Nordeste 17 Nordeste 0 1019.5 1.7 88
2019-12-06 19:00:00 -- 8 Nordeste 15 Este 0 1018.8 1.5 86
2019-12-06 18:00:00 -- 9 Este 14 Este 0 1018.3 1 82
2019-12-06 17:00:00 -- 5 Este 17 Este 0 1017.8 0.3 79
2019-12-06 16:00:00 -- 8 Este 16 Este 0 1017.3 -0.9 77
2019-12-06 15:00:00 -- 7 Este 11 Este 0 1017.3 -1.7 79
2019-12-06 14:00:00 -- 3 Sudeste 8 Nordeste 0 1017.5 -1.5 80
2019-12-06 13:00:00 -- 6 Nordeste 10 Nordeste 0 1018.2 -0.3 80
2019-12-06 12:00:00 -- 6 Este 14 Este 0 1019 1.6 86
2019-12-06 11:00:00 -- 0 Calma 6 Oeste 0 1019 2.3 90
2019-12-06 10:00:00 -- 0 Calma 8 Sudeste 0 1018.5 2.2 90
2019-12-06 09:00:00 -- 3 Noroeste 9 Noroeste 0 1017.4 1.5 90
2019-12-06 08:00:00 -- 5 Noroeste 11 Noroeste 0 1016.7 1.1 90
2019-12-06 07:00:00 -- 5 Noroeste 11 Noroeste 0 1016.3 0.8 90
2019-12-06 06:00:00 -- 7 Oeste 13 Noroeste 0 1015.9 0.5 90
2019-12-06 05:00:00 -- 9 Oeste 14 Oeste 0 1015.6 0.6 90
2019-12-06 04:00:00 -- 9 Oeste 13 Oeste 0 1015.5 0.4 90
2019-12-06 03:00:00 -- 6 Noroeste 14 Noroeste 0 1015.4 -0.2 91
2019-12-06 02:00:00 -- 8 Oeste 14 Oeste 0 1015 -0.6 91
2019-12-06 01:00:00 -- 4 Noroeste 10 Oeste 0 1015.1 -0.6 91
2019-12-06 00:00:00 -- 6 Noroeste 9 Noroeste 0 1015.6 0.2 91
2019-12-05 23:00:00 -- 0 Calma 12 Nordeste 0 1015.6 0.5 91
2019-12-05 22:00:00 -- 8 Nordeste 17 Este 0 1015.7 1.4 90
2019-12-05 21:00:00 -- 12 Este 19 Nordeste 0 1015.4 1.5 88
2019-12-05 20:00:00 -- 12 Nordeste 19 Este 0 1015.1 1.7 91
2019-12-05 19:00:00 -- 14 Este 26 Sudeste 0 1014.3 1.2 92
2019-12-05 18:00:00 -- 13 Este 22 Este 0 1013.9 1 91
2019-12-05 17:00:00 -- 15 Este 22 Este 0 1013.4 0.7 88
2019-12-05 16:00:00 -- 12 Este 20 Este 0 1013.1 -0.2 81
2019-12-05 15:00:00 -- 11 Este 21 Este 0 1012.9 -0.9 84
2019-12-05 14:00:00 -- 14 Este 23 Nordeste 0 1012.7 -0.6 79
2019-12-05 13:00:00 -- 16 Este 23 Este 0 1013.3 0.6 78
2019-12-05 12:00:00 -- 13 Este 21 Este 0 1013.8 2.2 77
2019-12-05 11:00:00 -- 6 Este 10 Este 0 1013.3 2.3 77
2019-12-05 10:00:00 -- 3 Noroeste 7 Noroeste 0 1012.7 2 75
2019-12-05 09:00:00 -- 5 Oeste 14 Noroeste 0 1011.6 1.9 75
2019-12-05 08:00:00 -- 6 Oeste 12 Oeste 0 1011 1.3 75
2019-12-05 07:00:00 -- 3 Noroeste 12 Oeste 0 1010.7 1 74
2019-12-05 06:00:00 -- 8 Oeste 12 Oeste 0 1009.7 0.4 74
2019-12-05 05:00:00 -- 2 Oeste 17 Noroeste 0 1009.7 0.4 72
2019-12-05 04:00:00 -- 0 Calma 21 Nordeste 0 1009.7 0.2 72
2019-12-05 03:00:00 -- 5 Norte 15 Norte 0 1009.3 0 74
2019-12-05 02:00:00 -- 4 Noroeste 11 Oeste 0 1009.3 0.1 77
2019-12-05 01:00:00 -- 0 Calma 10 Noroeste 0 1009.5 0.6 78
2019-12-05 00:00:00 -- 4 Noroeste 13 Oeste 0 1009.3 0.8 77
2019-12-04 23:00:00 -- 4 Oeste 12 Oeste 0 1009.2 1.3 76
2019-12-04 22:00:00 -- 3 Oeste 12 Oeste 0 1008.9 1.3 76
2019-12-04 21:00:00 -- 3 Oeste 11 Oeste 0 1008.5 1.2 74
2019-12-04 20:00:00 -- 0 Calma 9 Sudoeste 0 1007.9 1.4 75
2019-12-04 19:00:00 -- 4 Oeste 19 Oeste 0 1007.6 1.6 68
2019-12-04 18:00:00 -- 6 Oeste 33 Oeste 0 1007.3 1.6 67
2019-12-04 17:00:00 -- 9 Oeste 31 Oeste 0 1006.5 0.4 66
2019-12-04 16:00:00 -- 8 Oeste 37 Oeste 0 1006 -0.9 66
2019-12-04 15:00:00 -- 8 Oeste 28 Oeste 0 1005.7 -2.2 61
2019-12-04 14:00:00 -- 6 Oeste 21 Oeste 0 1006.1 -2.2 71
2019-12-04 13:00:00 -- 5 Sudoeste 20 Sudoeste 0 1006.9 -1.2 78
2019-12-04 12:00:00 -- 5 Sudoeste 18 Sur 0 1007.9 0.3 84
2019-12-04 11:00:00 -- 5 Sudeste 9 Sudeste 0 1008.3 1.1 81
2019-12-04 10:00:00 -- 4 Sur 8 Sur 0 1008.1 1.3 86
2019-12-04 09:00:00 -- 4 Noroeste 10 Oeste 0 1007.6 0.8 83
2019-12-04 08:00:00 -- 4 Oeste 13 Oeste 0 1007.2 -0.2 82
2019-12-04 07:00:00 -- 5 Noroeste 14 Oeste 0 1006.8 -1 85
2019-12-04 06:00:00 -- 5 Oeste 13 Oeste 0 1006.8 -1.7 87
2019-12-04 05:00:00 -- 6 Noroeste 12 Oeste 0 1007.4 -1.6 88
2019-12-04 04:00:00 -- 6 Noroeste 12 Oeste 0 1007.8 -1.3 85
2019-12-04 03:00:00 -- 0 Calma 11 Oeste 0 1008.5 -0.8 85
2019-12-04 02:00:00 -- 5 Oeste 11 Oeste 0.4 1009 -0.2 80
2019-12-04 01:00:00 -- 4 Oeste 13 Sudoeste 0 1009.1 0.2 77
2019-12-04 00:00:00 -- 5 Oeste 13 Oeste 0 1009.3 0.4 76
2019-12-03 23:00:00 -- 5 Oeste 15 Oeste 0 1009.2 0.6 80
2019-12-03 22:00:00 -- 0 Calma 16 Oeste 0 1008.9 0.7 82
2019-12-03 21:00:00 -- 6 Oeste 14 Oeste 0 1008.9 1.2 80
2019-12-03 20:00:00 -- 6 Oeste 21 Oeste 0 1008.6 1.1 77
2019-12-03 19:00:00 -- 4 Sudoeste 14 Oeste 0 1008.2 1 82
2019-12-03 18:00:00 -- 4 Oeste 16 Oeste 0 1007.7 0.8 82
2019-12-03 17:00:00 -- 2 Sudoeste 16 Sur 0 1007.5 0 84
2019-12-03 16:00:00 -- 4 Oeste 21 Sudoeste 0 1007.2 -1 86
2019-12-03 15:00:00 -- 5 Oeste 12 Oeste 0 1006.9 -2.5 77
2019-12-03 14:00:00 -- 5 Noroeste 13 Oeste 0 1007.5 -1.1 87
2019-12-03 13:00:00 -- 0 Calma 23 Este 0.9 1008.2 0.2 89
2019-12-03 12:00:00 -- 12 Este 21 Este 0 1009.4 1.9 86
2019-12-03 11:00:00 -- 5 Sudoeste 10 Oeste 0 1008.6 1 81
2019-12-03 10:00:00 -- 4 Noroeste 13 Noroeste 0 1008 0.8 83
2019-12-03 09:00:00 -- 4 Oeste 13 Norte 0 1007.5 -0.1 84
2019-12-03 08:00:00 -- 3 Nordeste 15 Oeste 0 1007.6 -0.9 82
2019-12-03 07:00:00 -- 3 Oeste 14 Oeste 0 1007.2 -2.1 95
2019-12-03 06:00:00 -- 4 Oeste 13 Oeste 0 1007.6 -1.9 98
2019-12-03 05:00:00 -- 0 Calma 8 Noroeste 0.8 1008.5 -1.6 98
2019-12-03 04:00:00 -- 3 Norte 13 Este 0.9 1009.3 -1.5 96
2019-12-03 03:00:00 -- 5 Nordeste 14 Nordeste 0 1009.5 -1.5 96
2019-12-03 02:00:00 -- 10 Este 22 Este 0 1010.1 -0.8 96
2019-12-03 01:00:00 -- 12 Este 28 Sudeste 0 1010.8 0.1 96
2019-12-03 00:00:00 -- 22 Este 36 Sudeste 0 1011 0.5 95
2019-12-02 23:00:00 -- 26 Sudeste 35 Sudeste 0 1010.9 0.7 95
2019-12-02 22:00:00 -- 17 Este 28 Sudeste 0 1010.7 1.2 94
2019-12-02 21:00:00 -- 16 Este 26 Este 0 1010.5 1.6 93
2019-12-02 20:00:00 -- 19 Este 31 Este 0 1010.2 1.8 96
2019-12-02 19:00:00 -- 16 Este 28 Este 0 1009.5 1.3 96
2019-12-02 18:00:00 -- 16 Este 27 Este 0 1008.9 1 96
2019-12-02 17:00:00 -- 19 Este 27 Este 0 1008.4 0 94
2019-12-02 16:00:00 -- 17 Este 26 Este 0 1008.2 -0.4 98
2019-12-02 15:00:00 -- 14 Este 24 Este 0.2 1007.9 -1.2 98
2019-12-02 14:00:00 -- 7 Sudeste 20 Sudeste 0.5 1008.4 -0.7 97
2019-12-02 13:00:00 -- 12 Este 22 Este 0.3 1008.6 0 94
2019-12-02 12:00:00 -- 15 Este 24 Este 0 1009.1 1 96
2019-12-02 11:00:00 -- 14 Este 20 Nordeste 0.4 1009.1 1.3 97
2019-12-02 10:00:00 -- 6 Este 10 Este 0 1008.6 1.1 97
2019-12-02 09:00:00 -- 4 Norte 9 Sudoeste 0 1008.1 0.7 96
2019-12-02 08:00:00 -- 2 Sudoeste 18 Sudeste 0 1007.8 0.4 96
2019-12-02 07:00:00 -- 6 Este 12 Este 0 1007.5 -0.3 96
2019-12-02 06:00:00 -- 5 Noroeste 12 Oeste 0 1007.4 -0.6 95
2019-12-02 05:00:00 -- 0 Calma 10 Noroeste 0 1007.4 -1 95
2019-12-02 04:00:00 -- 0 Calma 6 Noroeste 0 1007.8 -1 95
2019-12-02 03:00:00 -- 0 Calma 7 Noroeste 0 1008 -1.1 94
2019-12-02 02:00:00 -- 4 Norte 9 Oeste 0 1008.4 -0.8 94
2019-12-02 01:00:00 -- 0 Calma 9 Oeste 0 1008.8 -0.9 95
2019-12-02 00:00:00 -- 0 Calma 10 Oeste 0 1009.1 -0.6 94
2019-12-01 23:00:00 -- 0 Calma 13 Oeste 0 1009.2 -0.8 93
2019-12-01 22:00:00 -- 0 Calma 9 Oeste 0 1009.7 -0.4 93
2019-12-01 21:00:00 -- 2 Oeste 11 Oeste 0 1009.7 -0.3 93
2019-12-01 20:00:00 -- 0 Calma 20 Oeste 0 1010 0 93
2019-12-01 19:00:00 -- 6 Oeste 22 Oeste 0.2 1010.1 -0.4 90
2019-12-01 18:00:00 -- 6 Oeste 32 Oeste 0 1010 -0.9 83
2019-12-01 17:00:00 -- 7 Oeste 27 Sudoeste 0 1010 -2 80
2019-12-01 16:00:00 -- 8 Sudoeste 27 Sur 0 1010.5 -2.2 77
2019-12-01 15:00:00 -- 9 Sur 22 Sudoeste 0 1010.9 -2.9 85
2019-12-01 14:00:00 -- 6 Sudoeste 23 Sudoeste 0 1012 -2.2 79
2019-12-01 13:00:00 -- 8 Sudoeste 22 Sudoeste 0 1012.7 -1.2 84
2019-12-01 12:00:00 -- 2 Sudoeste 19 Sudoeste 0 1013.8 0 87
2019-12-01 11:00:00 -- 6 Sudeste 9 Sudeste 0 1014.2 0.6 90
2019-12-01 10:00:00 -- 0 Calma 8 Sudoeste 0 1013.9 0.4 92
2019-12-01 09:00:00 -- 4 Sur 8 Este 0 1013.8 0.3 93
2019-12-01 08:00:00 -- 5 Nordeste 9 Noroeste 0 1013.6 -0.6 90
2019-12-01 07:00:00 -- 3 Norte 8 Sudoeste 0 1013.5 -1.3 88
2019-12-01 06:00:00 -- 2 Sur 12 Norte 0 1013.5 -1.7 87
2019-12-01 05:00:00 -- 4 Oeste 9 Oeste 0 1014.2 -1.5 90
2019-12-01 04:00:00 -- 5 Oeste 10 Oeste 0 1014.8 -1.3 89
2019-12-01 03:00:00 -- 3 Oeste 10 Noroeste 0 1015.2 -1.5 89
2019-12-01 02:00:00 -- 5 Norte 15 Oeste 0 1015.7 -1.3 90
2019-12-01 01:00:00 -- 2 Oeste 13 Oeste 0 1016.1 -1.3 93
2019-12-01 00:00:00 -- 5 Oeste 12 Oeste 0 1016.7 -0.8 95
2019-11-30 23:00:00 -- 2 Noroeste 5 Oeste 0 1017 -0.7 96
2019-11-30 22:00:00 -- 0 Calma 5 Norte 0 1017.4 0 96
2019-11-30 21:00:00 -- 4 Nordeste 9 Nordeste 0 1017.5 0.1 96
2019-11-30 20:00:00 -- 0 Calma 6 Oeste 0 1017.7 0 90
2019-11-30 19:00:00 -- 0 Calma 6 Sur 0 1017.4 -0.8 92
2019-11-30 18:00:00 -- 3 Sudoeste 13 Sur 0 1017.4 -1.2 95
2019-11-30 17:00:00 -- 7 Sudoeste 11 Sudoeste 0 1017.7 -2 94
2019-11-30 16:00:00 -- 4 Sur 10 Sur 0 1018.2 -2.3 92
2019-11-30 15:00:00 -- 2 Sudeste 8 Sur 0 1018.6 -2.7 91
2019-11-30 14:00:00 -- 3 Sur 8 Sur 0 1019.7 -1.7 93
2019-11-30 13:00:00 -- 2 Sur 13 Sudoeste 0 1020.5 -0.5 93
2019-11-30 12:00:00 -- 10 Sudoeste 15 Sur 0 1021.3 0.9 91
2019-11-30 11:00:00 -- 3 Sudoeste 6 Sudoeste 0 1021.4 1.1 91
2019-11-30 10:00:00 -- 0 Calma 5 Noroeste 0 1021 1.3 91
2019-11-30 09:00:00 -- 4 Noroeste 8 Noroeste 0 1020.4 0.9 91
2019-11-30 08:00:00 -- 2 Noroeste 6 Norte 0 1020.3 0.5 90
2019-11-30 07:00:00 -- 3 Noroeste 11 Oeste 0 1019.7 -0.3 90
2019-11-30 06:00:00 -- 6 Noroeste 14 Oeste 0 1019.5 -0.6 93
2019-11-30 05:00:00 -- 6 Noroeste 10 Noroeste 0 1019.8 -0.4 93
2019-11-30 04:00:00 -- 6 Noroeste 10 Oeste 0 1020 -0.3 94
2019-11-30 03:00:00 -- 6 Noroeste 11 Oeste 0 1020.1 -0.3 94
2019-11-30 02:00:00 -- 2 Noroeste 8 Noroeste 0 1020.2 -0.3 96
2019-11-30 01:00:00 -- 3 Nordeste 8 Nordeste 0 1020.3 0 98
2019-11-30 00:00:00 -- 4 Nordeste 9 Nordeste 0 1020.4 0.5 98
2019-11-29 23:00:00 -- 7 Nordeste 11 Nordeste 0 1020.5 0.9 97
2019-11-29 22:00:00 -- 4 Nordeste 7 Nordeste 0 1020.3 0.8 95
2019-11-29 21:00:00 -- 3 Nordeste 7 Nordeste 0 1019.9 0.9 93
2019-11-29 20:00:00 -- 5 Nordeste 14 Nordeste 0 1019.6 1.1 94
2019-11-29 19:00:00 -- 11 Nordeste 15 Nordeste 0 1019.5 1.3 94
2019-11-29 18:00:00 -- 8 Nordeste 19 Norte 0 1019 0.6 90
2019-11-29 17:00:00 -- 13 Nordeste 17 Nordeste 0 1018.5 -0.4 81
2019-11-29 16:00:00 -- 4 Nordeste 10 Nordeste 0 1018.2 -1.4 80
2019-11-29 15:00:00 -- 8 Nordeste 14 Norte 0 1018.4 -1.8 84
2019-11-29 14:00:00 -- 8 Nordeste 12 Nordeste 0 1018.9 -1 78
2019-11-29 13:00:00 -- 5 Sudeste 8 Sur 0 1019.6 0.2 78
2019-11-29 12:00:00 -- 5 Nordeste 7 Nordeste 0 1020.2 1.4 78
2019-11-29 11:00:00 -- 3 Este 7 Este 0 1019.9 1.5 72
2019-11-29 10:00:00 -- 0 Calma 9 Oeste 0 1019.4 1.5 74
2019-11-29 09:00:00 -- 5 Noroeste 19 Sudoeste 0 1018.8 1.4 72
2019-11-29 08:00:00 -- 7 Noroeste 17 Norte 0 1018.4 0.9 74
2019-11-29 07:00:00 -- 3 Sudoeste 14 Sur 0 1017.9 0.4 78
2019-11-29 06:00:00 -- 4 Este 11 Sur 0 1017.4 -0.4 76
2019-11-29 05:00:00 -- 7 Noroeste 21 Norte 0 1017.5 0 72
2019-11-29 04:00:00 -- 4 Oeste 13 Noroeste 0 1017.5 -0.3 77
2019-11-29 03:00:00 -- 0 Calma 11 Noroeste 0 1017.8 -0.1 77
2019-11-29 02:00:00 -- 2 Oeste 8 Noroeste 0 1017.5 -0.5 76
2019-11-29 01:00:00 -- 4 Sudoeste 13 Sur 0 1017.8 -0.1 75
2019-11-29 00:00:00 -- 2 Sudoeste 13 Sur 0 1017.9 0.3 73
2019-11-28 23:00:00 -- 0 Calma 14 Noroeste 0 1018 0.8 71
2019-11-28 22:00:00 -- 4 Oeste 17 Este 0 1017.9 1 74
2019-11-28 21:00:00 -- 0 Calma 17 Sudoeste 0 1017.6 0.9 82
2019-11-28 20:00:00 -- 2 Sur 5 Sudoeste 0 1017.2 0.7 93
2019-11-28 19:00:00 -- 3 Sudoeste 10 Sur 0 1016.9 0.5 94
2019-11-28 18:00:00 -- 3 Sudoeste 12 Sudoeste 0 1016.7 0.1 93
2019-11-28 17:00:00 -- 8 Sudoeste 13 Sur 0 1016.5 -0.7 83
2019-11-28 16:00:00 -- 4 Sudoeste 16 Sur 0 1016.4 -1.3 76
2019-11-28 15:00:00 -- 4 Sudoeste 17 Sudoeste 0 1016.6 -1.7 73
2019-11-28 14:00:00 -- 8 Sudoeste 16 Sudoeste 0 1017.2 -0.9 74
2019-11-28 13:00:00 -- 5 Sur 18 Este 0 1017.7 -0.2 80
2019-11-28 12:00:00 -- 8 Nordeste 25 Norte 0 1018.3 1.2 72
2019-11-28 11:00:00 -- 18 Sudeste 21 Sudeste 0 1018.1 1.4 75
2019-11-28 10:00:00 -- 0 Calma 10 Norte 0 1017.9 1.7 77
2019-11-28 09:00:00 -- 2 Sudoeste 13 Oeste 0 1017.1 1.3 78
2019-11-28 08:00:00 -- 0 Calma 11 Sur 0 1016.7 0.5 77
2019-11-28 07:00:00 -- 5 Sudeste 13 Oeste 0 1016.2 0.1 76
2019-11-28 06:00:00 -- 5 Oeste 20 Oeste 0 1015.8 -0.3 74
2019-11-28 05:00:00 -- 3 Oeste 14 Norte 0 1016.2 0.1 75
2019-11-28 04:00:00 -- 7 Noroeste 20 Noroeste 0 1016.1 -0.5 71
2019-11-28 03:00:00 -- 7 Noroeste 14 Noroeste 0 1016.1 -0.3 77
2019-11-28 02:00:00 -- 5 Oeste 13 Noroeste 0 1016.1 -0.4 81
2019-11-28 01:00:00 -- 2 Noroeste 12 Este 0 1016.6 0.5 82
2019-11-28 00:00:00 -- 3 Oeste 11 Noroeste 0 1016.4 1 82
2019-11-27 23:00:00 -- 4 Oeste 14 Oeste 0 1016.5 1.1 85
2019-11-27 22:00:00 -- 4 Oeste 14 Oeste 0 1016.1 1.7 87
2019-11-27 21:00:00 -- 3 Sudoeste 13 Norte 0 1015.4 1.4 89
2019-11-27 20:00:00 -- 3 Noroeste 15 Noroeste 0 1015.4 1.5 85
2019-11-27 19:00:00 -- 6 Oeste 23 Oeste 0 1014.4 1 85
2019-11-27 18:00:00 -- 10 Oeste 26 Oeste 0 1014 0.1 84
2019-11-27 17:00:00 -- 10 Oeste 24 Oeste 0 1013.9 -0.5 81
2019-11-27 16:00:00 -- 7 Oeste 28 Oeste 0 1013.4 -1.2 80
2019-11-27 15:00:00 -- 12 Oeste 29 Noroeste 0 1013.9 -1.6 83
2019-11-27 14:00:00 -- 7 Sudoeste 25 Oeste 0 1014.4 -1.3 88
2019-11-27 06:00:00 -- 4 Oeste 18 Oeste 0 1012.9 -0.2 91
2019-11-27 05:00:00 -- 2 Norte 15 Noroeste 0 1012.9 -0.7 87
2019-11-27 04:00:00 -- 0 Calma 12 Noroeste 0 1012.9 -1 85
2019-11-27 03:00:00 -- 0 Calma 12 Oeste 0 1013.1 -1 85
2019-11-27 02:00:00 -- 0 Calma 6 Sudoeste 0 1013.6 -0.5 86
2019-11-27 01:00:00 -- 3 Noroeste 10 Oeste 0 1013.9 -0.2 84
2019-11-27 00:00:00 -- 3 Noroeste 19 Oeste 0 1014.1 0 83
2019-11-26 23:00:00 -- 3 Oeste 13 Sudoeste 0 1014.1 0.3 82
2019-11-26 22:00:00 -- 5 Oeste 12 Oeste 0 1014.1 0.9 82
2019-11-26 21:00:00 -- 4 Oeste 12 Oeste 0 1014.1 0.9 82
2019-11-26 20:00:00 -- 0 Calma 10 Nordeste 0 1013.8 1 88
2019-11-26 19:00:00 -- 0 Calma 12 Oeste 0 1013.2 0.5 82
2019-11-26 18:00:00 -- 5 Oeste 18 Oeste 0 1013.2 0.1 82
2019-11-26 17:00:00 -- 7 Oeste 26 Oeste 0 1012.8 -1.1 83
2019-11-26 16:00:00 -- 5 Oeste 31 Noroeste 0 1012.7 -2 81
2019-11-26 15:00:00 -- 4 Sudoeste 15 Oeste 0 1013.1 -2.3 80
2019-11-26 14:00:00 -- 3 Oeste 17 Oeste 0 1013.9 -2 79
2019-11-26 13:00:00 -- 2 Nordeste 12 Sur 0 1014.7 -1 81
2019-11-26 12:00:00 -- 3 Nordeste 9 Norte 0 1015.4 -0.3 91
2019-11-26 11:00:00 -- 4 Nordeste 8 Sudoeste 0 1015.9 0.5 92
2019-11-26 10:00:00 -- 0 Calma 10 Oeste 0 1015.7 0.6 91
2019-11-26 09:00:00 -- 6 Oeste 12 Noroeste 0 1015.7 0.6 92
2019-11-26 08:00:00 -- 0 Calma 11 Noroeste 0 1015.4 0.2 94
2019-11-26 07:00:00 -- 0 Calma 8 Norte 0 1015.1 -0.6 96
2019-11-26 06:00:00 -- 0 Calma 6 Sur 0 1015.1 -0.5 95
2019-11-26 05:00:00 -- 0 Calma 6 Sur 0 1015.2 -0.5 95
2019-11-26 04:00:00 -- 0 Calma 9 Sudeste 0 1015.7 -0.6 95
2019-11-26 03:00:00 -- 0 Calma 6 Nordeste 0 1015.6 -1.1 93
2019-11-26 02:00:00 -- 0 Calma 7 Sudoeste 0 1015.7 -1.1 93
2019-11-26 01:00:00 -- 5 Oeste 13 Oeste 0 1016.3 -0.6 92
2019-11-26 00:00:00 -- 3 Oeste 8 Oeste 0 1016.7 0.1 90
2019-11-25 23:00:00 -- 3 Oeste 12 Oeste 0 1016.8 0.4 90
2019-11-25 22:00:00 -- 3 Noroeste 12 Sur 0 1016.9 0.7 90
2019-11-25 21:00:00 -- 4 Noroeste 8 Oeste 0 1016.6 0.7 88
2019-11-25 20:00:00 -- 2 Sur 5 Sudeste 0 1016.4 0.5 87
2019-11-25 19:00:00 -- 0 Calma 9 Nordeste 0 1016.2 0.6 88
2019-11-25 18:00:00 -- 2 Este 7 Este 0 1015.9 -0.2 84
2019-11-25 17:00:00 -- 3 Sudeste 8 Sur 0 1015.9 -0.6 85
2019-11-25 16:00:00 -- 8 Sur 14 Sur 0 1015.6 -1.5 93
2019-11-25 15:00:00 -- 6 Sudoeste 9 Sur 0 1016.1 -1.8 92
2019-11-25 14:00:00 -- 4 Sudoeste 11 Sudoeste 0 1016.5 -1.5 90
2019-11-25 13:00:00 -- 0 Calma 8 Sur 0 1017.1 -0.7 86
2019-11-25 12:00:00 -- 0 Calma 5 Sur 0 1017.9 0.5 85
2019-11-25 11:00:00 -- 0 Calma 4 Sur 0 1018 1.1 85
2019-11-25 10:00:00 -- 0 Calma 12 Nordeste 0 1017.8 1.2 86
2019-11-25 09:00:00 -- 5 Norte 10 Nordeste 0 1017.4 0.9 81
2019-11-25 08:00:00 -- 0 Calma 9 Noroeste 0 1016.9 0.6 80
2019-11-25 07:00:00 -- 0 Calma 7 Noroeste 0 1016.6 0.4 78
2019-11-25 06:00:00 -- 0 Calma 14 Oeste 0 1016.5 -0.1 77
2019-11-25 05:00:00 -- 7 Noroeste 18 Oeste 0 1016.3 -0.3 74
2019-11-25 04:00:00 -- 3 Oeste 17 Oeste 0 1016.2 -0.7 73
2019-11-25 03:00:00 -- 5 Oeste 22 Sur 0 1016.6 -0.7 69
2019-11-25 02:00:00 -- 3 Sudoeste 25 Noroeste 0 1016.6 -0.5 70
2019-11-25 01:00:00 -- 5 Sudeste 19 Sur 0 1016.9 -0.5 70
2019-11-25 00:00:00 -- 8 Sudoeste 18 Sudoeste 0 1017.3 0.1 71
2019-11-24 23:00:00 -- 6 Oeste 15 Oeste 0 1017.1 0.4 65
2019-11-24 22:00:00 -- 0 Calma 13 Oeste 0 1017.4 1.3 66
2019-11-24 21:00:00 -- 4 Noroeste 21 Norte 0 1017.2 1.4 61
2019-11-24 20:00:00 -- 8 Noroeste 23 Noroeste 0 1016.7 1.1 59
2019-11-24 19:00:00 -- 0 Calma 9 Sur 0 1016.1 0.4 65
2019-11-24 18:00:00 -- 2 Sudeste 11 Sur 0 1015.8 0.1 71
2019-11-24 17:00:00 -- 9 Sur 14 Sur 0 1015.6 -0.1 74
2019-11-24 16:00:00 -- 8 Sudoeste 19 Sudoeste 0 1015.7 -0.7 76
2019-11-24 15:00:00 -- 11 Sudoeste 18 Sudoeste 0 1015.7 -1.3 69
2019-11-24 14:00:00 -- 8 Sudoeste 24 Sur 0 1015.7 -1.6 68
2019-11-24 13:00:00 -- 11 Norte 24 Noroeste 0 1016.4 -0.5 52
2019-11-24 12:00:00 -- 8 Noroeste 25 Oeste 0 1017 0.4 55
2019-11-24 11:00:00 -- 3 Norte 19 Noroeste 0 1017.3 1.5 59
2019-11-24 10:00:00 -- 0 Calma 7 Norte 0 1016.9 1.9 71
2019-11-24 09:00:00 -- 2 Nordeste 14 Oeste 0 1016.6 2 68
2019-11-24 08:00:00 -- 5 Oeste 11 Oeste 0 1015.8 1.5 69
2019-11-24 07:00:00 -- 0 Calma 18 Oeste 0 1015 0.3 69
2019-11-24 06:00:00 -- 7 Oeste 16 Oeste 0 1014.6 0.3 67
2019-11-24 05:00:00 -- 4 Oeste 16 Oeste 0 1014.3 0.2 66
2019-11-24 04:00:00 -- 0 Calma 14 Oeste 0 1014.7 0.5 66
2019-11-24 03:00:00 -- 4 Oeste 14 Norte 0 1014.3 0.4 66
2019-11-24 02:00:00 -- 3 Oeste 13 Oeste 0 1014.1 0 65
2019-11-24 01:00:00 -- 6 Oeste 20 Oeste 0 1014.2 0.6 60
2019-11-24 00:00:00 -- 10 Noroeste 28 Oeste 0 1013.9 0.6 60
2019-11-23 23:00:00 -- 3 Oeste 19 Noroeste 0 1014.1 1.7 63
2019-11-23 22:00:00 -- 8 Noroeste 22 Oeste 0 1013.6 2.3 57
2019-11-23 21:00:00 -- 6 Oeste 22 Norte 0 1013.3 3 63
2019-11-23 20:00:00 -- 8 Noroeste 17 Noroeste 0 1012.4 2.9 53
2019-11-23 19:00:00 -- 3 Noroeste 27 Oeste 0 1011.3 2.9 53
2019-11-23 18:00:00 -- 3 Noroeste 24 Oeste 0 1010.3 2.6 52
2019-11-23 17:00:00 -- 7 Noroeste 26 Noroeste 0 1009.5 1.6 49
2019-11-23 16:00:00 -- 10 Noroeste 34 Norte 0 1008.4 0.2 48
2019-11-23 15:00:00 -- 13 Noroeste 35 Noroeste 0 1007.7 -0.4 47
2019-11-23 14:00:00 -- 12 Noroeste 35 Noroeste 0 1007.9 0.5 48
2019-11-23 13:00:00 -- 14 Norte 41 Norte 0 1008.2 1.7 51
2019-11-23 12:00:00 -- 10 Noroeste 45 Norte 0 1008.1 2.9 55
2019-11-23 11:00:00 -- 10 Noroeste 28 Noroeste 0 1007.4 3.1 59
2019-11-23 10:00:00 -- 9 Noroeste 33 Norte 0 1006.5 3.5 61
2019-11-23 09:00:00 -- 20 Noroeste 42 Noroeste 0 1005.2 3.1 60
2019-11-23 08:00:00 -- 5 Noroeste 26 Noroeste 0 1004.3 2.7 73
2019-11-23 07:00:00 -- 2 Sudoeste 12 Sur 0 1003 1.7 75
2019-11-23 06:00:00 -- 3 Sudoeste 16 Oeste 0 1002.1 0.9 77
2019-11-23 05:00:00 -- 2 Sudoeste 8 Nordeste 0 1001.6 0.8 91
2019-11-23 04:00:00 -- 0 Calma 15 Oeste 0 1001.3 0.5 91
2019-11-23 03:00:00 -- 7 Noroeste 16 Oeste 0 1001.2 1 90
2019-11-23 02:00:00 -- 0 Calma 11 Nordeste 0 1000.8 1 91
2019-11-23 01:00:00 -- 0 Calma 23 Sudeste 0 1000.8 0.7 91
2019-11-23 00:00:00 -- 10 Sudeste 34 Nordeste 0 1000.2 1.1 94
2019-11-22 23:00:00 -- 16 Este 26 Sudeste 0 999.8 0.9 99
2019-11-22 22:00:00 -- 3 Sudeste 33 Oeste 2.3 1000.1 2.1 99
2019-11-22 21:00:00 -- 13 Oeste 46 Oeste 15.3 999.1 0.5 99
2019-11-22 20:00:00 -- 11 Oeste 49 Oeste 0.5 998.9 -0.2 96
2019-11-22 19:00:00 -- 12 Oeste 49 Oeste 0 998 -1.5 88
2019-11-22 18:00:00 -- 8 Oeste 39 Oeste 0 998.6 -2.2 91
2019-11-22 17:00:00 -- 5 Oeste 32 Oeste 0 999.1 -2.9 94
2019-11-22 16:00:00 -- 12 Sudoeste 54 Oeste 1.1 999.5 -4.2 98
2019-11-22 15:00:00 -- 8 Oeste 35 Sudoeste 0.4 1000.8 -4.2 98
2019-11-22 14:00:00 -- 8 Oeste 33 Sudoeste 0 1002 -4.1 99
2019-11-22 13:00:00 -- 6 Oeste 27 Oeste 0.6 1003.7 -2 99
2019-11-22 12:00:00 -- 3 Sudoeste 17 Sudoeste 2.6 1005 -0.6 99
2019-11-22 11:00:00 -- 4 Sur 22 Oeste 1.2 1006.1 0.5 99
2019-11-22 10:00:00 -- 6 Oeste 24 Oeste 3.6 1005.7 0 99
2019-11-22 09:00:00 -- 2 Sudoeste 14 Oeste 4 1005.6 -0.5 99
2019-11-22 08:00:00 -- 3 Oeste 14 Oeste 8.7 1005.6 -1 99
2019-11-22 07:00:00 -- 2 Oeste 22 Oeste 3.6 1005.7 -1.1 99
2019-11-22 06:00:00 -- 2 Oeste 16 Oeste 1.4 1006.1 -1 99
2019-11-22 05:00:00 -- 4 Oeste 24 Oeste 0.6 1006.6 -0.7 99
2019-11-22 04:00:00 -- 2 Oeste 18 Oeste 1.8 1006.8 -1.3 99
2019-11-22 03:00:00 -- 4 Oeste 20 Oeste 1 1007.1 -1.5 99
2019-11-22 02:00:00 -- 2 Oeste 9 Oeste 0.5 1007.3 -1.4 99
2019-11-22 01:00:00 -- 0 Calma 12 Oeste 0 1008.1 -0.9 99
2019-11-22 00:00:00 -- 0 Calma 4 Noroeste 0 1008.6 -0.3 99
2019-11-21 23:00:00 -- 0 Calma 9 Oeste 0 1008.7 -0.1 99
2019-11-21 22:00:00 -- 4 Oeste 21 Oeste 0.6 1009 0.3 99
2019-11-21 21:00:00 -- 3 Oeste 15 Oeste 0 1008.9 0.1 99
2019-11-21 20:00:00 -- 3 Oeste 15 Oeste 0.3 1008.8 0 99
2019-11-21 19:00:00 -- 0 Calma 8 Norte 2.5 1008.7 0.1 99
2019-11-21 18:00:00 -- 2 Nordeste 10 Sudeste 5.1 1008.8 0 99
2019-11-21 17:00:00 -- 0 Calma 8 Este 3 1008.8 -0.6 99
2019-11-21 16:00:00 -- 4 Nordeste 9 Nordeste 3 1008.6 -1.6 99
2019-11-21 15:00:00 -- 5 Este 10 Este 0 1008.8 -2.1 99
2019-11-21 14:00:00 -- 4 Este 9 Este 0 1009.4 -1.8 99
2019-11-21 13:00:00 -- 2 Nordeste 6 Nordeste 0.5 1010.2 -0.8 99
2019-11-21 12:00:00 -- 2 Nordeste 8 Este 2.3 1010.9 0.5 99
2019-11-21 11:00:00 -- 3 Este 6 Nordeste 2.6 1011.2 0.7 99
2019-11-21 10:00:00 -- 3 Este 7 Nordeste 2 1011 1.1 99
2019-11-21 09:00:00 -- 0 Calma 6 Nordeste 9.9 1010.4 0.5 99
2019-11-21 08:00:00 -- 2 Nordeste 6 Nordeste 1.3 1010.5 0.5 99
2019-11-21 07:00:00 -- 0 Calma 5 Sur 0.3 1009.9 -0.7 99
2019-11-21 06:00:00 -- 0 Calma 5 Nordeste 3 1009.9 -1.1 99
2019-11-21 05:00:00 -- 0 Calma 8 Oeste 1.1 1010 -0.8 99
2019-11-21 04:00:00 -- 2 Noroeste 9 Noroeste 0 1010.6 -0.8 98
2019-11-21 03:00:00 -- 0 Calma 8 Noroeste 0 1011 -0.5 98
2019-11-21 02:00:00 -- 0 Calma 3 Sur 0 1010.8 -0.9 98
2019-11-21 01:00:00 -- 0 Calma 0 Calma 0 1011.4 -0.2 98
2019-11-21 00:00:00 -- 0 Calma 5 Sudeste 0 1011.5 0.2 98
2019-11-20 23:00:00 -- 0 Calma 3 Sudoeste 0 1011.7 0.6 98
2019-11-20 22:00:00 -- 0 Calma 2 Sur 0 1011.6 0.8 98
2019-11-20 21:00:00 -- 0 Calma 8 Este 0 1011.3 0.9 98
2019-11-20 20:00:00 -- 2 Nordeste 7 Sudoeste 0 1011.1 0.6 98
2019-11-20 19:00:00 -- 4 Oeste 8 Sur 0.2 1010.8 0.3 98
2019-11-20 18:00:00 -- 0 Calma 9 Sudoeste 0.4 1010.4 -0.3 96
2019-11-20 17:00:00 -- 0 Calma 6 Oeste 0 1010.5 -1 98
2019-11-20 16:00:00 -- 0 Calma 7 Sudoeste 0 1010.5 -1.6 99
2019-11-20 15:00:00 -- 0 Calma 10 Sudeste 0.2 1010.7 -2.3 98
2019-11-20 14:00:00 -- 0 Calma 5 Sur 0.3 1011.5 -1.4 97
2019-11-20 13:00:00 -- 0 Calma 6 Oeste 0.9 1012.1 -0.6 96
2019-11-20 12:00:00 -- 0 Calma 5 Este 0.3 1013 0.4 92
2019-11-20 11:00:00 -- 3 Este 9 Este 0.1 1012.9 0.3 89
2019-11-20 10:00:00 -- 2 Este 12 Noroeste 0 1012.7 0.3 86
2019-11-20 09:00:00 -- 3 Noroeste 16 Oeste 0 1012.6 0.3 87
2019-11-20 08:00:00 -- 7 Noroeste 10 Noroeste 0 1012.6 0.3 85
2019-11-20 07:00:00 -- 4 Noroeste 7 Noroeste 0 1012.4 -0.5 83
2019-11-20 06:00:00 -- 2 Norte 12 Oeste 0 1012.3 -1 82
2019-11-20 05:00:00 -- 4 Noroeste 11 Noroeste 0 1012.3 -1.5 82
2019-11-20 04:00:00 -- 5 Noroeste 10 Oeste 0 1012.9 -1 82
2019-11-20 03:00:00 -- 4 Noroeste 12 Oeste 0 1013.3 -0.8 81
2019-11-20 02:00:00 -- 6 Noroeste 11 Oeste 0 1013.8 -0.7 83
2019-11-20 01:00:00 -- 0 Calma 10 Sudeste 0 1013.9 -0.7 85
2019-11-20 00:00:00 -- 9 Sur 13 Sur 0 1014.1 -0.5 85
2019-11-19 23:00:00 -- 6 Sudoeste 12 Oeste 0 1014.5 -0.3 84
2019-11-19 22:00:00 -- 6 Este 10 Este 0 1014.6 -0.2 79
2019-11-19 21:00:00 -- 5 Noroeste 8 Noroeste 0 1014.6 -0.1 76
2019-11-19 20:00:00 -- 0 Calma 6 Noroeste 0 1014.8 0.3 76
2019-11-19 19:00:00 -- 4 Norte 11 Oeste 0 1014.8 0.1 75
2019-11-19 18:00:00 -- 4 Oeste 15 Oeste 0 1014.7 -0.4 76
2019-11-19 17:00:00 -- 4 Oeste 19 Sur 0 1014.5 -1.3 78
2019-11-19 16:00:00 -- 10 Sudoeste 19 Sur 0 1014.7 -1.8 78
2019-11-19 15:00:00 -- 11 Sur 16 Sur 0 1015.1 -2.2 78
2019-11-19 14:00:00 -- 9 Sudoeste 14 Sudoeste 0 1015.8 -2 71
2019-11-19 13:00:00 -- 5 Sudoeste 12 Sudoeste 0 1016.5 -1.2 77
2019-11-19 12:00:00 -- 6 Sudeste 9 Sudeste 0 1017.3 -0.2 74
2019-11-19 11:00:00 -- 3 Sur 6 Sur 0 1017.8 0.7 68
2019-11-19 10:00:00 -- 3 Oeste 7 Noroeste 0 1017.7 0.9 67
2019-11-19 09:00:00 -- 4 Noroeste 11 Oeste 0 1017.5 1.2 67
2019-11-19 08:00:00 -- 5 Noroeste 19 Noroeste 0 1017.1 0.9 66
2019-11-19 07:00:00 -- 6 Noroeste 10 Noroeste 0 1016.8 0.7 66
2019-11-19 06:00:00 -- 5 Oeste 14 Oeste 0 1016.3 0.4 67
2019-11-19 05:00:00 -- 4 Oeste 13 Noroeste 0 1016.2 0.2 66
2019-11-19 04:00:00 -- 4 Oeste 23 Norte 0 1016.1 -0.5 64
2019-11-19 03:00:00 -- 11 Norte 32 Norte 0 1015.9 -0.9 60
2019-11-19 02:00:00 -- 10 Norte 29 Norte 0 1016 -0.8 60
2019-11-19 01:00:00 -- 5 Oeste 24 Noroeste 0 1016.6 0.6 62
2019-11-19 00:00:00 -- 4 Oeste 26 Norte 0 1016.8 1.2 63
2019-11-18 23:00:00 -- 0 Calma 35 Norte 0 1016.8 1.3 61
2019-11-18 22:00:00 -- 12 Norte 36 Norte 0 1016 1.1 59
2019-11-18 21:00:00 -- 10 Norte 37 Norte 0 1015.6 1.8 59
2019-11-18 20:00:00 -- 9 Norte 60 Sudeste 0 1015.5 2.2 60
2019-11-18 19:00:00 -- 5 Nordeste 50 Este 0 1014.9 1.9 57
2019-11-18 18:00:00 -- 14 Nordeste 41 Este 0 1013.8 0.7 55
2019-11-18 17:00:00 -- 9 Nordeste 37 Norte 0 1013.3 0.3 57
2019-11-18 16:00:00 -- 15 Nordeste 39 Nordeste 0 1013 -0.1 57
2019-11-18 15:00:00 -- 4 Norte 37 Este 0 1013.1 -0.3 57
2019-11-18 14:00:00 -- 9 Noroeste 37 Norte 0 1013 -0.7 58
2019-11-18 13:00:00 -- 14 Noroeste 40 Noroeste 0 1013.1 0.1 61
2019-11-18 12:00:00 -- 21 Norte 40 Noroeste 0 1013.4 1.4 63
2019-11-18 11:00:00 -- 14 Noroeste 36 Norte 0 1013.7 3 63
2019-11-18 10:00:00 -- 10 Norte 30 Norte 0 1013 3.2 64
2019-11-18 09:00:00 -- 7 Noroeste 36 Norte 0 1012 3.1 66
2019-11-18 08:00:00 -- 8 Noroeste 36 Norte 0 1010.7 1.9 67
2019-11-18 07:00:00 -- 12 Noroeste 35 Norte 0 1009.8 0.4 63
2019-11-18 06:00:00 -- 6 Noroeste 31 Oeste 0 1008.9 -1.4 89
2019-11-18 05:00:00 -- 14 Oeste 36 Noroeste 0 1008.8 -2.4 93
2019-11-18 04:00:00 -- 6 Oeste 34 Sudoeste 0 1009.4 -2.8 88
2019-11-18 03:00:00 -- 10 Oeste 44 Oeste 0 1010.3 -2.5 91
2019-11-18 02:00:00 -- 9 Oeste 27 Oeste 0 1011.2 -2.4 91
2019-11-18 01:00:00 -- 5 Oeste 36 Oeste 0 1012.2 -2.1 96
2019-11-18 00:00:00 -- 11 Oeste 40 Oeste 0 1012.8 -1.8 93
2019-11-17 23:00:00 -- 11 Oeste 37 Oeste 0 1013.6 -1.7 96
2019-11-17 22:00:00 -- 12 Oeste 33 Oeste 0 1014.3 -1.2 95
2019-11-17 21:00:00 -- 7 Oeste 30 Oeste 0 1014.6 -1.3 96
2019-11-17 20:00:00 -- 2 Sudoeste 29 Sudoeste 0 1015.3 -0.6 96
2019-11-17 19:00:00 -- 8 Oeste 35 Oeste 0 1015.5 -0.6 95
2019-11-17 18:00:00 -- 9 Oeste 30 Oeste 0 1015.9 -0.1 88
2019-11-17 17:00:00 -- 8 Oeste 31 Oeste 0 1015.9 -0.9 84
2019-11-17 16:00:00 -- 9 Oeste 46 Oeste 0 1016.1 -1.5 81
2019-11-17 15:00:00 -- 18 Oeste 46 Oeste 0 1016 -2.5 76
2019-11-17 14:00:00 -- 7 Oeste 36 Oeste 0 1016.8 -2.1 72
2019-11-17 13:00:00 -- 10 Oeste 35 Oeste 0 1017.6 -1.1 68
2019-11-17 12:00:00 14.4 0 Calma 14 Oeste 0 1018.5 -0.1 66
2019-11-17 11:00:00 13.4 3 Este 7 Nordeste 0 1018.9 0.6 63
2019-11-17 10:00:00 12 2 Oeste 13 Oeste 0 1018.7 0.7 63
2019-11-17 09:00:00 10.5 5 Noroeste 12 Oeste 0 1018.6 0.8 65
2019-11-17 08:00:00 9.6 7 Noroeste 13 Noroeste 0 1018.3 0.5 65
2019-11-17 07:00:00 10.3 0 Calma 13 Oeste 0 1018 -0.1 64
2019-11-17 06:00:00 24.2 8 Noroeste 12 Noroeste 0 1017.8 -0.1 69
2019-11-17 05:00:00 11.1 6 Noroeste 14 Oeste 0 1017.8 -0.3 60
2019-11-17 04:00:00 25.7 2 Norte 15 Sudoeste 0 1018.1 -0.1 66
2019-11-17 03:00:00 12 4 Oeste 14 Oeste 0 1017.9 -0.2 60
2019-11-17 02:00:00 12.2 0 Calma 13 Oeste 0 1018.1 -0.3 58
2019-11-17 01:00:00 12 4 Oeste 9 Oeste 0 1018.2 0.2 60
2019-11-17 00:00:00 13.4 3 Sudoeste 11 Noroeste 0 1018.1 0.8 57
2019-11-16 23:00:00 13.5 6 Oeste 14 Oeste 0 1018.4 1.4 54
2019-11-16 22:00:00 14 8 Oeste 20 Oeste 0 1018 1.5 53
2019-11-16 21:00:00 14.2 3 Oeste 12 Noroeste 0 1017.3 1.3 52
2019-11-16 20:00:00 14 5 Norte 16 Norte 0 1017 1.5 52
2019-11-16 19:00:00 14.7 8 Norte 25 Norte 0 1016.5 1.6 52
2019-11-16 18:00:00 15.8 10 Nordeste 16 Nordeste 0 1016 1.3 50
2019-11-16 17:00:00 16.5 7 Sudeste 20 Oeste 0 1015.5 0.7 50
2019-11-16 16:00:00 16.5 4 Sur 15 Sudeste 0 1014.9 0.1 50
2019-11-16 15:00:00 16.2 7 Sur 21 Nordeste 0 1014.7 -0.2 52
2019-11-16 14:00:00 16 2 Noroeste 27 Noroeste 0 1014.8 0 49
2019-11-16 13:00:00 15.1 12 Noroeste 33 Noroeste 0 1014.8 0.4 52
2019-11-16 12:00:00 14 3 Norte 25 Oeste 0 1014.9 1.5 55
2019-11-16 11:00:00 12.6 11 Oeste 32 Oeste 0 1014.8 2.6 59
2019-11-16 10:00:00 11.9 8 Norte 23 Noroeste 0 1014.4 3.1 59
2019-11-16 09:00:00 10.6 4 Noroeste 18 Oeste 0 1013.4 2.9 63
2019-11-16 08:00:00 10.6 3 Noroeste 15 Oeste 0 1012.2 2.2 63
2019-11-16 07:00:00 10.7 7 Noroeste 17 Oeste 0 1011.3 1.9 62
2019-11-16 06:00:00 11.2 4 Noroeste 12 Oeste 0 1010.5 1.1 63
2019-11-16 05:00:00 11.5 0 Calma 14 Oeste 0 1010 0.6 63
2019-11-16 04:00:00 11.5 7 Oeste 17 Oeste 0 1009.4 0.2 63
2019-11-16 03:00:00 12.1 4 Oeste 16 Oeste 0 1009.4 0.2 63
2019-11-16 02:00:00 11.9 0 Calma 14 Oeste 0 1009.4 0.6 63
2019-11-16 01:00:00 11.8 5 Oeste 12 Oeste 0 1009.2 0.8 64
2019-11-16 00:00:00 11.9 3 Oeste 14 Oeste 0 1009.2 0.9 65
2019-11-15 23:00:00 12.2 4 Oeste 12 Oeste 0 1008.8 0.7 64
2019-11-15 22:00:00 12.7 0 Calma 15 Noroeste 0 1008.4 0.8 61
2019-11-15 21:00:00 13.1 6 Noroeste 14 Noroeste 0 1008.3 1.3 59
2019-11-15 20:00:00 13.6 0 Calma 15 Oeste 0 1008.1 1.4 57
2019-11-15 19:00:00 13.6 4 Oeste 19 Oeste 0 1007.6 1.4 55
2019-11-15 18:00:00 13.8 8 Noroeste 29 Noroeste 0 1007 1.1 53
2019-11-15 17:00:00 14.5 11 Norte 31 Este 0 1006.7 0.5 49
2019-11-15 16:00:00 14.9 15 Norte 40 Noroeste 0 1006.2 -0.7 46
2019-11-15 15:00:00 15.1 13 Norte 33 Norte 0 1005.9 -1.8 47
2019-11-15 14:00:00 15.8 12 Norte 25 Oeste 0 1006.2 -1.8 47
2019-11-15 13:00:00 15.3 7 Norte 26 Noroeste 0 1006.9 -0.6 50
2019-11-15 12:00:00 14.4 7 Noroeste 27 Oeste 0 1007.7 0.2 53
2019-11-15 11:00:00 13.6 5 Noroeste 22 Norte 0 1008 0.5 56
2019-11-15 10:00:00 12.8 4 Norte 19 Norte 0 1007.5 0.7 58
2019-11-15 09:00:00 12.1 8 Norte 19 Noroeste 0 1007.5 0.8 58
2019-11-15 08:00:00 12.2 3 Oeste 14 Oeste 0 1007.5 0.5 59
2019-11-15 07:00:00 12.9 7 Noroeste 31 Noroeste 0 1006.8 -0.6 54
2019-11-15 06:00:00 13.4 13 Noroeste 33 Noroeste 0 1006.7 -1 53
2019-11-15 05:00:00 13.3 9 Noroeste 25 Norte 0 1007 -1.1 55
2019-11-15 04:00:00 13.7 5 Noroeste 15 Noroeste 0 1007.4 -0.6 62
2019-11-15 03:00:00 14.1 4 Oeste 16 Oeste 0 1007.7 -0.5 62
2019-11-15 02:00:00 13.9 5 Oeste 17 Oeste 0 1008.1 -0.1 59
2019-11-15 01:00:00 14.2 4 Noroeste 20 Norte 0 1008 -0.1 60
2019-11-15 00:00:00 14.3 4 Oeste 24 Norte 0 1008.2 0.5 62